Time;durP1;ratioP1;P1;durP2;ratioP2;P2;SDS_P1;SDS_P2;PMS_P1;PMS_P2;Temp;Humidity;BMP_temperature;BMP_pressure;BME280_temperature;BME280_humidity;BME280_pressure;Samples;Min_cycle;Max_cycle;Signal;HPM_P1;HPM_P2
2022/01/23 00:00:47;;;;;;;13.88;5.35;;;5.40;99.90;;;;;;5088795;28;20044;-51
2022/01/23 00:03:17;;;;;;;10.10;5.15;;;5.40;99.90;;;;;;5085823;28;20112;-53
2022/01/23 00:05:45;;;;;;;10.88;5.30;;;5.40;99.90;;;;;;5085997;28;20071;-50
2022/01/23 00:08:13;;;;;;;9.82;5.20;;;5.40;99.90;;;;;;5089104;28;20041;-53
2022/01/23 00:10:39;;;;;;;11.57;5.53;;;5.40;99.90;;;;;;5086078;28;20052;-51
2022/01/23 00:13:17;;;;;;;10.55;5.82;;;5.40;99.90;;;;;;5086867;28;20044;-50
2022/01/23 00:18:28;;;;;;;15.13;6.53;;;5.40;99.90;;;;;;5087140;28;20067;-53
2022/01/23 00:20:54;;;;;;;10.10;5.95;;;5.40;99.90;;;;;;5082559;28;20040;-54
2022/01/23 00:30:18;;;;;;;14.43;7.03;;;5.40;99.90;;;;;;5085665;28;20048;-52
2022/01/23 00:31:46;;;;;;;13.07;6.32;;;5.40;99.90;;;;;;5087271;28;20048;-49
2022/01/23 00:34:12;;;;;;;12.80;6.10;;;5.40;99.90;;;;;;5089049;28;20052;-52
2022/01/23 00:36:37;;;;;;;11.27;6.38;;;5.40;99.90;;;;;;5086871;28;20044;-53
2022/01/23 00:39:04;;;;;;;13.32;6.55;;;5.40;99.90;;;;;;5082943;28;20040;-51
2022/01/23 00:41:29;;;;;;;10.13;6.32;;;5.40;99.90;;;;;;5090268;28;20037;-49
2022/01/23 00:43:55;;;;;;;11.30;6.40;;;5.40;99.90;;;;;;5083942;28;20046;-50
2022/01/23 00:46:23;;;;;;;14.85;7.03;;;5.40;99.90;;;;;;5091732;28;20037;-51
2022/01/23 00:51:26;;;;;;;10.65;6.10;;;5.40;99.90;;;;;;5094513;28;20060;-53
2022/01/23 00:53:52;;;;;;;;;;;5.40;99.90;;;;;;5085457;28;20045;-52
2022/01/23 00:56:17;;;;;;;13.68;5.75;;;5.40;99.90;;;;;;5090099;28;19920;-52
2022/01/23 00:58:44;;;;;;;14.00;7.88;;;5.40;99.90;;;;;;5087746;28;20030;-50
2022/01/23 01:01:10;;;;;;;12.52;6.80;;;5.40;99.90;;;;;;5088863;28;20044;-50
2022/01/23 01:03:36;;;;;;;13.40;6.88;;;5.40;99.90;;;;;;5086485;28;20072;-52
2022/01/23 01:06:02;;;;;;;10.45;6.97;;;5.40;99.90;;;;;;5087240;28;20037;-53
2022/01/23 01:08:27;;;;;;;12.82;6.32;;;5.40;99.90;;;;;;5089275;28;20078;-50
2022/01/23 01:13:23;;;;;;;11.60;7.13;;;5.40;99.90;;;;;;5084748;28;20182;-51
2022/01/23 01:32:07;;;;;;;12.35;7.05;;;5.40;99.90;;;;;;5091517;28;20054;-50
2022/01/23 01:34:41;;;;;;;11.88;7.15;;;5.40;99.90;;;;;;5089291;28;20583;-51
2022/01/23 01:37:09;;;;;;;15.02;7.10;;;5.40;99.90;;;;;;5085254;28;20199;-49
2022/01/23 01:39:35;;;;;;;10.70;6.95;;;5.40;99.90;;;;;;5085264;28;20090;-49
2022/01/23 01:42:00;;;;;;;13.60;7.05;;;5.40;99.90;;;;;;5091150;28;20032;-49
2022/01/23 01:44:27;;;;;;;17.08;7.53;;;5.40;99.90;;;;;;5091595;28;20096;-50
2022/01/23 01:46:53;;;;;;;15.52;7.63;;;5.40;99.90;;;;;;5087880;28;20070;-52
2022/01/23 01:49:26;;;;;;;12.25;7.95;;;5.40;99.90;;;;;;5089093;28;20049;-50
2022/01/23 01:51:53;;;;;;;14.77;7.60;;;5.40;99.90;;;;;;5087892;28;20045;-49
2022/01/23 01:54:21;;;;;;;11.57;8.23;;;5.40;99.90;;;;;;5084324;28;20063;-49
2022/01/23 01:57:04;;;;;;;16.63;8.02;;;5.40;99.90;;;;;;5090264;28;20045;-53
2022/01/23 02:10:32;;;;;;;11.40;8.32;;;5.40;99.90;;;;;;5090786;28;20047;-50
2022/01/23 02:13:11;;;;;;;16.67;8.10;;;5.40;99.90;;;;;;5088635;28;20033;-50
2022/01/23 02:16:16;;;;;;;16.85;8.15;;;5.40;99.90;;;;;;5087053;28;20082;-50
2022/01/23 02:24:22;;;;;;;13.35;8.30;;;5.40;99.90;;;;;;5082106;28;20553;-52
2022/01/23 02:51:56;;;;;;;14.55;8.60;;;5.40;99.90;;;;;;5090936;28;20101;-52
2022/01/23 02:54:41;;;;;;;16.23;8.73;;;5.40;99.90;;;;;;5085852;28;20052;-53
2022/01/23 02:57:08;;;;;;;16.38;9.32;;;5.40;99.90;;;;;;5085424;28;20139;-52
2022/01/23 02:59:37;;;;;;;12.45;9.23;;;5.40;99.90;;;;;;5088945;28;20044;-54
2022/01/23 03:04:37;;;;;;;14.23;9.60;;;5.40;99.90;;;;;;5085246;28;20040;-50
2022/01/23 03:14:50;;;;;;;17.10;9.90;;;5.30;99.90;;;;;;5088153;28;20111;-49
2022/01/23 03:26:08;;;;;;;15.90;10.27;;;5.30;99.90;;;;;;5084944;28;20071;-49
2022/01/23 03:29:01;;;;;;;15.40;9.90;;;5.40;99.90;;;;;;5089657;28;20100;-53
2022/01/23 03:31:28;;;;;;;14.10;9.15;;;5.40;99.90;;;;;;5076751;28;20032;-50
2022/01/23 03:33:54;;;;;;;23.35;10.43;;;5.40;99.90;;;;;;5092586;28;20052;-49
2022/01/23 03:36:19;;;;;;;19.90;10.25;;;5.40;99.90;;;;;;5085550;28;20049;-53
2022/01/23 03:38:45;;;;;;;20.35;11.48;;;5.30;99.90;;;;;;5088837;28;20061;-52
2022/01/23 03:41:12;;;;;;;16.52;10.55;;;5.40;99.90;;;;;;5085647;28;20034;-51
2022/01/23 03:43:39;;;;;;;16.20;9.93;;;5.30;99.90;;;;;;5088639;28;20048;-55
2022/01/23 03:46:22;;;;;;;16.13;9.77;;;5.30;99.90;;;;;;5085167;28;20041;-56
2022/01/23 03:51:20;;;;;;;17.00;10.20;;;5.30;99.90;;;;;;5081246;28;20045;-55
2022/01/23 03:53:46;;;;;;;17.45;10.23;;;5.30;99.90;;;;;;5080827;28;20037;-48
2022/01/23 03:56:12;;;;;;;17.35;10.90;;;5.40;99.90;;;;;;5084411;28;20039;-49
2022/01/23 03:58:37;;;;;;;15.93;9.52;;;5.40;99.90;;;;;;5083454;28;20052;-53
2022/01/23 04:01:03;;;;;;;13.32;9.88;;;5.40;99.90;;;;;;5090793;28;20021;-52
2022/01/23 04:03:30;;;;;;;14.98;10.50;;;5.30;99.90;;;;;;5089637;28;20063;-51
2022/01/23 04:05:55;;;;;;;18.23;10.48;;;5.30;99.90;;;;;;5090615;28;20016;-52
2022/01/23 04:08:21;;;;;;;19.58;11.32;;;5.30;99.90;;;;;;5092441;28;20048;-51
2022/01/23 04:10:46;;;;;;;17.88;10.68;;;5.30;99.90;;;;;;5092311;28;20024;-52
2022/01/23 04:15:52;;;;;;;17.85;10.95;;;5.30;99.90;;;;;;5096260;28;20048;-50
2022/01/23 04:31:54;;;;;;;19.13;11.68;;;5.30;99.90;;;;;;5093728;28;20024;-51
2022/01/23 04:34:36;;;;;;;25.27;11.35;;;5.30;99.90;;;;;;5085564;28;20052;-54
2022/01/23 04:45:23;;;;;;;21.05;12.07;;;5.30;99.90;;;;;;5094403;28;20032;-51
2022/01/23 05:02:04;;;;;;;25.30;13.20;;;5.40;99.90;;;;;;5086306;28;20045;-52
2022/01/23 05:04:23;;;;;;;27.40;13.48;;;5.30;99.90;;;;;;5087869;28;20034;-50
2022/01/23 05:07:04;;;;;;;29.80;13.80;;;5.30;99.90;;;;;;5085918;28;20045;-54
2022/01/23 05:09:30;;;;;;;25.50;13.45;;;5.30;99.90;;;;;;5089774;28;20064;-56
2022/01/23 05:12:02;;;;;;;27.52;14.52;;;5.30;99.90;;;;;;5080799;28;20071;-53
2022/01/23 05:14:40;;;;;;;25.17;13.98;;;5.30;99.90;;;;;;5084572;28;20040;-51
2022/01/23 05:17:10;;;;;;;34.15;15.07;;;5.30;99.90;;;;;;5088726;28;20086;-50
2022/01/23 05:19:38;;;;;;;31.00;14.32;;;5.30;99.90;;;;;;5087842;28;20033;-53
2022/01/23 05:24:39;;;;;;;30.08;13.77;;;5.30;99.90;;;;;;5085676;28;20774;-52
2022/01/23 05:27:07;;;;;;;29.77;14.10;;;5.30;99.90;;;;;;5087588;28;20039;-54
2022/01/23 05:29:34;;;;;;;28.58;13.75;;;5.30;99.90;;;;;;5085797;28;20025;-51
2022/01/23 05:32:00;;;;;;;27.58;14.18;;;5.30;99.90;;;;;;5089920;28;20040;-53
2022/01/23 05:34:26;;;;;;;27.35;14.32;;;5.30;99.90;;;;;;5087270;28;20125;-50
2022/01/23 05:36:52;;;;;;;28.83;14.55;;;5.30;99.90;;;;;;5091330;28;20025;-52
2022/01/23 05:39:21;;;;;;;27.85;14.18;;;5.30;99.90;;;;;;5092102;28;20035;-53
2022/01/23 05:41:48;;;;;;;33.78;14.88;;;5.30;99.90;;;;;;5091609;28;20029;-53
2022/01/23 05:44:13;;;;;;;31.13;15.20;;;5.30;99.90;;;;;;5091596;28;20043;-49
2022/01/23 05:46:39;;;;;;;28.65;14.82;;;5.30;99.90;;;;;;5085320;28;20021;-53
2022/01/23 05:49:05;;;;;;;29.08;14.73;;;5.30;99.90;;;;;;5090288;28;21328;-53
2022/01/23 05:51:31;;;;;;;30.30;14.93;;;5.30;99.90;;;;;;5084116;28;20102;-50
2022/01/23 05:53:57;;;;;;;31.92;15.73;;;5.30;99.90;;;;;;5090551;28;20041;-52
2022/01/23 05:56:23;;;;;;;34.78;14.73;;;5.30;99.90;;;;;;5086032;28;20040;-52
2022/01/23 05:58:49;;;;;;;30.65;14.65;;;5.30;99.90;;;;;;5088081;28;20017;-52
2022/01/23 06:01:14;;;;;;;28.10;14.10;;;5.30;99.90;;;;;;5089143;28;20052;-53
2022/01/23 06:03:40;;;;;;;29.27;14.20;;;5.30;99.90;;;;;;5094980;28;20116;-51
2022/01/23 06:06:05;;;;;;;28.17;13.13;;;5.30;99.90;;;;;;5082669;28;20037;-53
2022/01/23 06:08:31;;;;;;;25.73;12.90;;;5.20;99.90;;;;;;5086073;28;20025;-53
2022/01/23 06:10:57;;;;;;;25.45;13.05;;;5.30;99.90;;;;;;5087357;28;20037;-52
2022/01/23 06:13:25;;;;;;;25.30;13.73;;;5.30;99.90;;;;;;5084901;28;20118;-53
2022/01/23 06:15:52;;;;;;;27.35;13.13;;;5.30;99.90;;;;;;5084917;28;20021;-48
2022/01/23 06:18:18;;;;;;;24.65;12.98;;;5.30;99.90;;;;;;5085972;28;20040;-49
2022/01/23 06:20:43;;;;;;;23.27;12.50;;;5.30;99.90;;;;;;5093465;28;20039;-54
2022/01/23 06:23:09;;;;;;;25.88;12.18;;;5.30;99.90;;;;;;5087479;28;20025;-51
2022/01/23 06:25:37;;;;;;;23.00;13.50;;;5.30;99.90;;;;;;5089564;28;20086;-50
2022/01/23 06:28:06;;;;;;;24.13;12.48;;;5.30;99.90;;;;;;5092151;28;20048;-52
2022/01/23 06:30:33;;;;;;;20.35;11.63;;;5.30;99.90;;;;;;5086014;28;20052;-51
2022/01/23 06:33:00;;;;;;;25.35;12.57;;;5.30;99.90;;;;;;5088815;28;20447;-50
2022/01/23 06:35:25;;;;;;;17.70;11.50;;;5.30;99.90;;;;;;5085441;28;21185;-52
2022/01/23 06:37:51;;;;;;;20.02;11.88;;;5.30;99.90;;;;;;5083167;28;20109;-50
2022/01/23 06:40:17;;;;;;;25.80;12.25;;;5.20;99.90;;;;;;5093039;28;20024;-53
2022/01/23 06:42:42;;;;;;;26.45;12.43;;;5.20;99.90;;;;;;5084903;28;20020;-50
2022/01/23 06:45:08;;;;;;;24.08;12.13;;;5.20;99.90;;;;;;5091123;28;20124;-49
2022/01/23 06:47:34;;;;;;;24.08;12.65;;;5.30;99.90;;;;;;5084696;28;20036;-50
2022/01/23 06:49:59;;;;;;;23.85;11.98;;;5.30;99.90;;;;;;5086551;28;20044;-49
2022/01/23 06:52:25;;;;;;;21.70;12.25;;;5.30;99.90;;;;;;5090021;28;20040;-51
2022/01/23 06:54:51;;;;;;;23.35;12.40;;;5.20;99.90;;;;;;5086959;28;20048;-53
2022/01/23 06:57:16;;;;;;;19.20;11.77;;;5.20;99.90;;;;;;5093868;28;20024;-51
2022/01/23 06:59:42;;;;;;;23.50;12.60;;;5.30;99.90;;;;;;5090949;28;20048;-49
2022/01/23 07:02:09;;;;;;;19.55;11.82;;;5.20;99.90;;;;;;5085919;28;20043;-49
2022/01/23 07:04:35;;;;;;;19.17;11.38;;;5.20;99.90;;;;;;5087254;28;20043;-52
2022/01/23 07:07:00;;;;;;;19.65;11.82;;;5.30;99.90;;;;;;5082751;28;20037;-49
2022/01/23 07:09:26;;;;;;;21.75;12.38;;;5.30;99.90;;;;;;5086184;28;20048;-55
2022/01/23 07:11:52;;;;;;;24.23;12.88;;;5.30;99.90;;;;;;5083801;28;20091;-55
2022/01/23 07:14:18;;;;;;;22.13;12.43;;;5.20;99.90;;;;;;5082779;28;20025;-48
2022/01/23 07:16:43;;;;;;;19.55;12.82;;;5.20;99.90;;;;;;5082512;28;20021;-50
2022/01/23 07:19:09;;;;;;;22.08;11.63;;;5.20;99.90;;;;;;5083932;28;20061;-53
2022/01/23 07:21:34;;;;;;;20.38;12.40;;;5.30;99.90;;;;;;5083224;28;20044;-52
2022/01/23 07:24:00;;;;;;;21.67;12.70;;;5.20;99.90;;;;;;5086331;28;20055;-49
2022/01/23 07:26:27;;;;;;;22.90;13.00;;;5.20;99.90;;;;;;5083638;28;20051;-55
2022/01/23 07:28:55;;;;;;;21.77;13.07;;;5.20;99.90;;;;;;5083800;28;20041;-51
2022/01/23 07:31:43;;;;;;;21.33;13.20;;;5.30;99.90;;;;;;5081762;28;20056;-49
2022/01/23 07:34:11;;;;;;;20.33;13.23;;;5.20;99.90;;;;;;5083029;28;20048;-51
2022/01/23 07:36:37;;;;;;;23.45;13.32;;;5.20;99.90;;;;;;5085979;28;20059;-50
2022/01/23 07:39:04;;;;;;;22.80;12.95;;;5.30;99.90;;;;;;5084338;28;20086;-52
2022/01/23 07:41:30;;;;;;;22.00;13.15;;;5.30;99.90;;;;;;5087521;28;20092;-49
2022/01/23 07:43:58;;;;;;;21.27;13.18;;;5.30;99.90;;;;;;5089300;28;20033;-52
2022/01/23 07:46:23;;;;;;;24.52;13.25;;;5.20;99.90;;;;;;5085956;28;20072;-53
2022/01/23 07:48:49;;;;;;;21.90;12.68;;;5.20;99.90;;;;;;5093130;28;20059;-54
2022/01/23 07:51:14;;;;;;;20.73;12.80;;;5.30;99.90;;;;;;5093354;28;20022;-49
2022/01/23 07:53:40;;;;;;;20.95;12.25;;;5.30;99.90;;;;;;5090110;28;20123;-50
2022/01/23 07:56:05;;;;;;;21.67;12.38;;;5.30;99.90;;;;;;5090881;28;20025;-50
2022/01/23 07:58:31;;;;;;;21.40;12.15;;;5.30;99.90;;;;;;5090184;28;20060;-50
2022/01/23 08:00:57;;;;;;;20.23;12.20;;;5.30;99.90;;;;;;5087006;28;20027;-52
2022/01/23 08:03:22;;;;;;;20.52;12.70;;;5.30;99.90;;;;;;5085623;28;20027;-49
2022/01/23 08:05:48;;;;;;;18.27;11.45;;;5.30;99.90;;;;;;5090135;28;20060;-55
2022/01/23 08:08:13;;;;;;;22.33;11.82;;;5.30;99.90;;;;;;5091195;28;20025;-53
2022/01/23 08:10:39;;;;;;;21.40;12.32;;;5.30;99.90;;;;;;5086059;28;20043;-52
2022/01/23 08:13:05;;;;;;;19.25;11.88;;;5.40;99.90;;;;;;5088181;28;20100;-52
2022/01/23 08:15:34;;;;;;;21.55;11.45;;;5.40;99.90;;;;;;5088926;28;20096;-54
2022/01/23 08:18:02;;;;;;;17.92;11.15;;;5.40;99.90;;;;;;5083759;28;20407;-49
2022/01/23 08:20:28;;;;;;;18.52;11.10;;;5.40;99.90;;;;;;5088715;28;20090;-53
2022/01/23 08:22:54;;;;;;;19.83;11.30;;;5.40;99.90;;;;;;5085878;28;20032;-54
2022/01/23 08:25:20;;;;;;;16.90;11.57;;;5.40;99.90;;;;;;5086197;28;20030;-54
2022/01/23 08:27:45;;;;;;;16.92;11.32;;;5.50;99.90;;;;;;5091528;28;20107;-50
2022/01/23 08:30:13;;;;;;;19.10;11.18;;;5.50;99.90;;;;;;5091508;28;20017;-52
2022/01/23 08:32:39;;;;;;;19.55;11.80;;;5.50;99.90;;;;;;5084681;28;20052;-54
2022/01/23 08:35:05;;;;;;;17.65;11.40;;;5.60;99.90;;;;;;5087674;28;20057;-54
2022/01/23 08:37:31;;;;;;;17.48;10.43;;;5.60;99.90;;;;;;5090776;28;20105;-55
2022/01/23 08:39:57;;;;;;;15.35;10.07;;;5.60;99.90;;;;;;5087166;28;20024;-53
2022/01/23 08:42:23;;;;;;;16.65;10.55;;;5.50;99.90;;;;;;5091617;28;20059;-52
2022/01/23 08:44:49;;;;;;;20.13;10.30;;;5.60;99.90;;;;;;5090150;28;20020;-53
2022/01/23 08:47:15;;;;;;;21.73;10.80;;;5.60;99.90;;;;;;5084211;28;20024;-52
2022/01/23 08:49:46;;;;;;;15.02;9.95;;;5.60;99.90;;;;;;5084026;28;20044;-53
2022/01/23 08:52:16;;;;;;;16.75;10.50;;;5.70;99.90;;;;;;5092686;28;20049;-49
2022/01/23 08:54:42;;;;;;;21.67;11.32;;;5.80;99.90;;;;;;5085602;28;20045;-51
2022/01/23 08:57:08;;;;;;;18.23;11.57;;;5.80;99.90;;;;;;5088515;28;20027;-51
2022/01/23 08:59:33;;;;;;;20.73;11.57;;;5.80;99.90;;;;;;5090191;28;20056;-53
2022/01/23 09:01:59;;;;;;;15.75;11.43;;;5.90;99.90;;;;;;5093493;28;20033;-54
2022/01/23 09:04:24;;;;;;;20.75;12.07;;;5.90;99.90;;;;;;5090356;28;20036;-49
2022/01/23 09:06:50;;;;;;;17.30;11.60;;;5.90;99.90;;;;;;5090958;28;20040;-50
2022/01/23 09:09:18;;;;;;;19.73;12.38;;;6.00;99.90;;;;;;5092681;28;20044;-48
2022/01/23 09:14:20;;;;;;;21.00;13.25;;;6.10;99.90;;;;;;5090753;28;20056;-50
2022/01/23 09:16:48;;;;;;;20.65;13.32;;;6.10;99.90;;;;;;5092557;28;20047;-51
2022/01/23 09:19:16;;;;;;;19.08;13.05;;;6.10;99.90;;;;;;5094666;28;20040;-55
2022/01/23 09:21:42;;;;;;;19.90;12.63;;;6.10;99.90;;;;;;5085827;28;20056;-52
2022/01/23 09:24:08;;;;;;;26.40;13.82;;;6.20;99.90;;;;;;5087559;28;20295;-53
2022/01/23 09:26:36;;;;;;;20.80;13.02;;;6.20;99.90;;;;;;5088203;28;20085;-51
2022/01/23 09:29:11;;;;;;;19.85;13.30;;;6.20;99.90;;;;;;5083645;28;20121;-49
2022/01/23 09:31:49;;;;;;;21.65;13.98;;;6.30;99.90;;;;;;5093614;28;20056;-51
2022/01/23 09:34:17;;;;;;;21.65;13.43;;;6.20;99.90;;;;;;5083749;28;20044;-52
2022/01/23 09:36:42;;;;;;;20.52;14.07;;;6.30;99.90;;;;;;5080935;28;20055;-50
2022/01/23 09:39:10;;;;;;;21.85;14.23;;;6.30;99.90;;;;;;5077924;28;20049;-50
2022/01/23 09:41:37;;;;;;;20.73;14.13;;;6.30;99.90;;;;;;5086065;28;20045;-50
2022/01/23 09:44:03;;;;;;;22.23;15.17;;;6.30;99.90;;;;;;5094092;28;20021;-48
2022/01/23 09:46:28;;;;;;;23.77;14.15;;;6.40;99.90;;;;;;5086816;28;20032;-49
2022/01/23 09:48:54;;;;;;;21.15;14.18;;;6.40;99.90;;;;;;5093005;28;20033;-48
2022/01/23 09:51:23;;;;;;;22.83;14.88;;;6.40;99.90;;;;;;5079750;28;20075;-49
2022/01/23 09:53:53;;;;;;;21.20;14.07;;;6.50;99.90;;;;;;5079144;28;20075;-53
2022/01/23 09:56:29;;;;;;;18.80;13.25;;;6.50;99.90;;;;;;5087222;28;20080;-49
2022/01/23 09:58:56;;;;;;;21.85;14.30;;;6.50;99.90;;;;;;5093713;28;20025;-48
2022/01/23 10:01:23;;;;;;;21.00;14.85;;;6.60;99.90;;;;;;5091719;28;20100;-50
2022/01/23 10:03:50;;;;;;;18.80;13.38;;;6.60;99.90;;;;;;5078191;28;20037;-48
2022/01/23 10:06:16;;;;;;;18.70;13.68;;;6.60;99.90;;;;;;5088621;28;20527;-48
2022/01/23 10:08:42;;;;;;;19.45;13.27;;;6.60;99.90;;;;;;5086396;28;20044;-51
2022/01/23 10:11:11;;;;;;;19.42;13.80;;;6.70;99.90;;;;;;5082332;28;20036;-48
2022/01/23 10:13:38;;;;;;;18.52;14.35;;;6.70;99.90;;;;;;5086405;28;20146;-52
2022/01/23 10:16:04;;;;;;;18.02;14.18;;;6.70;99.90;;;;;;5091900;28;20076;-54
2022/01/23 10:18:31;;;;;;;16.92;13.50;;;6.70;99.90;;;;;;5099351;28;20048;-50
2022/01/23 10:20:57;;;;;;;16.42;13.40;;;6.70;99.90;;;;;;5093920;28;20040;-50
2022/01/23 10:23:24;;;;;;;18.42;13.15;;;6.70;99.90;;;;;;5091459;28;20040;-53
2022/01/23 10:25:51;;;;;;;17.57;13.00;;;6.70;99.90;;;;;;5094163;28;20114;-53
2022/01/23 10:28:20;;;;;;;18.95;13.15;;;6.70;99.90;;;;;;5095455;28;20045;-54
2022/01/23 10:30:56;;;;;;;17.17;12.80;;;6.70;99.90;;;;;;5094253;28;20040;-54
2022/01/23 10:33:24;;;;;;;18.35;13.05;;;6.80;99.90;;;;;;5090271;28;20050;-54
2022/01/23 10:36:12;;;;;;;18.35;12.50;;;6.80;99.90;;;;;;5090185;28;20047;-54
2022/01/23 10:38:44;;;;;;;15.35;12.07;;;6.90;99.90;;;;;;5093820;28;20040;-53
2022/01/23 10:41:29;;;;;;;17.30;12.13;;;6.90;99.90;;;;;;5082384;28;20033;-49
2022/01/23 10:49:49;;;;;;;14.80;11.85;;;7.20;99.90;;;;;;5093847;28;20049;-54
2022/01/23 10:52:49;;;;;;;13.27;10.65;;;7.20;99.90;;;;;;5086940;28;20029;-56
2022/01/23 10:55:20;;;;;;;14.68;10.23;;;7.30;99.90;;;;;;5087033;28;20045;-53
2022/01/23 10:57:51;;;;;;;13.32;9.55;;;7.30;99.90;;;;;;5092100;28;20104;-53
2022/01/23 11:00:25;;;;;;;12.30;9.85;;;7.40;99.90;;;;;;5091383;28;20033;-53
2022/01/23 11:02:52;;;;;;;11.45;10.02;;;7.40;99.90;;;;;;5082561;28;20051;-53
2022/01/23 11:05:19;;;;;;;12.40;10.35;;;7.40;99.90;;;;;;5078000;28;20110;-53
2022/01/23 11:07:48;;;;;;;13.47;10.37;;;7.50;99.90;;;;;;5092692;28;20052;-53
2022/01/23 11:10:19;;;;;;;12.07;9.45;;;7.50;99.90;;;;;;5088233;28;20028;-52
2022/01/23 11:18:31;;;;;;;9.40;8.40;;;7.50;99.90;;;;;;5084748;28;20059;-54
2022/01/23 11:20:58;;;;;;;9.75;7.95;;;7.50;99.90;;;;;;5084633;28;20037;-55
2022/01/23 11:23:27;;;;;;;10.43;8.60;;;7.60;99.90;;;;;;5081046;28;20045;-54
2022/01/23 11:25:55;;;;;;;9.55;8.02;;;7.60;99.90;;;;;;5090981;28;20044;-51
2022/01/23 11:28:40;;;;;;;10.52;8.65;;;7.50;99.90;;;;;;5085015;28;20049;-53
2022/01/23 11:31:09;;;;;;;10.93;9.63;;;7.50;99.90;;;;;;5089788;28;20049;-51
2022/01/23 11:33:35;;;;;;;13.77;10.18;;;7.50;99.90;;;;;;5083090;28;20071;-54
2022/01/23 11:36:01;;;;;;;11.55;9.75;;;7.50;99.90;;;;;;5074768;28;20033;-55
2022/01/23 11:38:28;;;;;;;13.13;10.18;;;7.60;99.90;;;;;;5083916;28;20041;-54
2022/01/23 11:54:47;;;;;;;10.23;7.82;;;7.50;99.90;;;;;;5080245;28;20111;-55
2022/01/23 11:57:37;;;;;;;9.25;7.95;;;7.50;99.90;;;;;;5081808;28;20049;-52
2022/01/23 12:00:31;;;;;;;9.27;7.72;;;7.50;99.90;;;;;;5088582;28;20114;-55
2022/01/23 12:03:17;;;;;;;9.98;7.32;;;7.50;99.90;;;;;;5079924;28;20049;-55
2022/01/23 12:05:49;;;;;;;9.80;7.95;;;7.40;99.90;;;;;;5082490;28;20118;-54
2022/01/23 12:08:29;;;;;;;11.77;8.38;;;7.40;99.90;;;;;;5087620;28;20029;-50
2022/01/23 12:17:00;;;;;;;9.88;8.20;;;7.40;99.90;;;;;;5087605;28;20028;-54
2022/01/23 12:19:27;;;;;;;10.60;8.77;;;7.40;99.90;;;;;;5087990;28;20063;-53
2022/01/23 12:21:55;;;;;;;9.23;8.15;;;7.40;99.90;;;;;;5084153;28;20021;-50
2022/01/23 12:24:24;;;;;;;9.60;8.23;;;7.40;99.90;;;;;;5080999;28;20079;-54
2022/01/23 12:26:52;;;;;;;12.98;8.52;;;7.40;99.90;;;;;;5088053;28;20031;-55
2022/01/23 12:29:23;;;;;;;;;;;7.40;99.90;;;;;;5092436;28;20040;-52
2022/01/23 12:32:09;;;;;;;6.97;5.97;;;7.30;99.90;;;;;;5085621;28;19925;-54
2022/01/23 12:34:51;;;;;;;9.13;5.95;;;7.30;99.90;;;;;;5084033;28;20017;-53
2022/01/23 12:37:16;;;;;;;9.00;6.50;;;7.20;99.90;;;;;;5085424;28;20033;-51
2022/01/23 12:39:42;;;;;;;7.07;6.32;;;7.20;99.90;;;;;;5091884;28;20036;-54
2022/01/23 12:42:08;;;;;;;9.40;6.38;;;7.20;99.90;;;;;;5088024;28;20060;-53
2022/01/23 12:44:36;;;;;;;11.93;7.30;;;7.20;99.90;;;;;;5081461;28;20045;-51
2022/01/23 12:47:05;;;;;;;6.40;5.18;;;7.20;99.90;;;;;;5091065;28;20037;-53
2022/01/23 12:49:33;;;;;;;6.15;5.20;;;7.10;99.90;;;;;;5084706;28;20037;-51
2022/01/23 12:52:08;;;;;;;6.15;5.30;;;7.10;99.90;;;;;;5085126;28;20044;-52
2022/01/23 12:54:46;;;;;;;5.60;5.07;;;7.10;99.90;;;;;;5084763;28;20042;-53
2022/01/23 12:57:18;;;;;;;6.65;5.30;;;7.10;99.90;;;;;;5088359;28;20056;-52
2022/01/23 12:59:53;;;;;;;7.32;5.70;;;7.00;99.90;;;;;;5086595;28;20048;-53
2022/01/23 13:02:21;;;;;;;8.48;5.90;;;7.00;99.90;;;;;;5085069;28;20057;-53
2022/01/23 13:04:52;;;;;;;4.97;3.83;;;7.00;99.90;;;;;;5094061;28;20032;-52
2022/01/23 13:08:19;;;;;;;3.47;2.55;;;7.00;99.90;;;;;;5079398;28;20049;-54
2022/01/23 13:13:22;;;;;;;2.20;1.90;;;7.00;99.90;;;;;;5084563;28;20048;-53
2022/01/23 13:15:57;;;;;;;3.13;2.15;;;7.00;99.90;;;;;;5081094;28;20075;-53
2022/01/23 13:31:58;;;;;;;3.25;2.65;;;7.00;99.90;;;;;;5083798;28;20033;-53
2022/01/23 13:34:25;;;;;;;4.20;3.30;;;7.00;99.90;;;;;;5084862;28;20032;-53
2022/01/23 13:37:01;;;;;;;4.43;3.70;;;7.00;99.90;;;;;;5091818;28;20105;-51
2022/01/23 13:39:41;;;;;;;4.90;3.45;;;6.90;99.90;;;;;;5090898;28;20044;-55
2022/01/23 13:48:55;;;;;;;3.95;2.47;;;6.90;99.90;;;;;;5083001;28;20071;-53
2022/01/23 13:59:59;;;;;;;2.80;2.60;;;6.80;99.90;;;;;;5083109;28;20060;-53
2022/01/23 14:02:27;;;;;;;3.20;2.88;;;6.90;99.90;;;;;;5084228;28;20044;-53
2022/01/23 14:04:53;;;;;;;4.00;2.97;;;6.80;99.90;;;;;;5085553;28;20052;-52
2022/01/23 14:07:20;;;;;;;4.38;3.22;;;6.90;99.90;;;;;;5081661;28;20044;-55
2022/01/23 14:09:46;;;;;;;3.42;3.10;;;6.90;99.90;;;;;;5082956;28;20075;-54
2022/01/23 14:12:15;;;;;;;3.72;3.42;;;6.80;99.90;;;;;;5074572;28;20052;-55
2022/01/23 14:15:02;;;;;;;5.03;2.90;;;6.80;99.90;;;;;;5075613;28;20041;-53
2022/01/23 14:17:28;;;;;;;4.63;3.88;;;6.80;99.90;;;;;;5074927;28;20037;-54
2022/01/23 14:20:08;;;;;;;4.45;3.63;;;6.80;99.90;;;;;;5082752;28;20103;-53
2022/01/23 14:22:37;;;;;;;4.05;2.97;;;6.80;99.90;;;;;;5086208;28;20035;-54
2022/01/23 14:25:21;;;;;;;3.15;2.38;;;6.70;99.90;;;;;;5087848;28;20088;-54
2022/01/23 14:28:02;;;;;;;3.63;2.40;;;6.70;99.90;;;;;;5085102;28;20036;-55
2022/01/23 14:30:30;;;;;;;2.17;1.90;;;6.70;99.90;;;;;;5087746;28;20045;-53
2022/01/23 14:33:04;;;;;;;5.27;2.17;;;6.70;99.90;;;;;;5082454;28;20055;-54
2022/01/23 14:35:31;;;;;;;2.55;2.35;;;6.70;99.90;;;;;;5081927;28;20347;-54
2022/01/23 14:38:11;;;;;;;2.47;2.27;;;6.70;99.90;;;;;;5083056;28;20044;-55
2022/01/23 14:40:39;;;;;;;2.72;2.00;;;6.60;99.90;;;;;;5088127;28;20061;-55
2022/01/23 14:43:13;;;;;;;2.37;2.10;;;6.60;99.90;;;;;;5080467;28;20060;-54
2022/01/23 14:45:44;;;;;;;3.08;2.40;;;6.60;99.90;;;;;;5082289;28;20067;-55
2022/01/23 14:48:12;;;;;;;3.80;2.25;;;6.60;99.90;;;;;;5081463;28;20040;-52
2022/01/23 14:50:42;;;;;;;2.72;1.90;;;6.60;99.90;;;;;;5087807;28;20068;-53
2022/01/23 14:53:12;;;;;;;3.28;1.90;;;6.60;99.90;;;;;;5074498;28;20056;-52
2022/01/23 14:55:42;;;;;;;1.90;1.77;;;6.60;99.90;;;;;;5074900;28;20036;-53
2022/01/23 14:58:13;;;;;;;2.55;2.10;;;6.60;99.90;;;;;;5081858;28;20052;-55
2022/01/23 15:00:39;;;;;;;3.55;2.28;;;6.50;99.90;;;;;;5079266;28;20041;-53
2022/01/23 15:03:06;;;;;;;2.50;2.08;;;6.50;99.90;;;;;;5078619;28;20041;-53
2022/01/23 15:05:34;;;;;;;3.25;2.20;;;6.50;99.90;;;;;;5089977;28;20100;-55
2022/01/23 15:08:00;;;;;;;2.88;2.40;;;6.50;99.90;;;;;;5084023;28;20497;-54
2022/01/23 15:10:26;;;;;;;2.78;2.35;;;6.50;99.90;;;;;;5082059;28;20040;-53
2022/01/23 15:12:52;;;;;;;2.97;2.22;;;6.50;99.90;;;;;;5079471;28;20148;-54
2022/01/23 15:15:18;;;;;;;3.33;2.40;;;6.50;99.90;;;;;;5089753;28;20107;-54
2022/01/23 15:17:44;;;;;;;2.40;2.20;;;6.40;99.90;;;;;;5073614;28;20092;-55
2022/01/23 15:20:10;;;;;;;2.55;2.30;;;6.40;99.90;;;;;;5082434;28;20036;-54
2022/01/23 15:22:36;;;;;;;2.50;2.30;;;6.40;99.90;;;;;;5084535;28;20025;-53
2022/01/23 15:25:06;;;;;;;2.90;2.38;;;6.40;99.90;;;;;;5087227;28;20705;-54
2022/01/23 15:27:32;;;;;;;4.15;2.50;;;6.40;99.90;;;;;;5081968;28;20025;-50
2022/01/23 15:29:58;;;;;;;3.35;2.47;;;6.30;99.90;;;;;;5084963;28;20109;-52
2022/01/23 15:32:23;;;;;;;2.40;2.20;;;6.30;99.90;;;;;;5086810;28;20036;-53
2022/01/23 15:34:50;;;;;;;2.88;2.10;;;6.30;99.90;;;;;;5080611;28;20051;-51
2022/01/23 15:37:15;;;;;;;2.55;1.80;;;6.30;99.90;;;;;;5077471;28;20055;-53
2022/01/23 15:39:41;;;;;;;2.13;1.92;;;6.30;99.90;;;;;;5090934;28;20029;-54
2022/01/23 15:42:08;;;;;;;2.28;2.08;;;6.30;99.90;;;;;;5079564;28;20447;-54
2022/01/23 15:44:33;;;;;;;2.75;1.95;;;6.30;99.90;;;;;;5074551;28;20041;-53
2022/01/23 15:46:59;;;;;;;2.15;1.90;;;6.30;99.90;;;;;;5081319;28;20045;-53
2022/01/23 15:49:24;;;;;;;3.38;2.22;;;6.30;99.90;;;;;;5078017;28;20101;-54
2022/01/23 15:51:50;;;;;;;2.40;2.10;;;6.30;99.90;;;;;;5076738;28;20052;-53
2022/01/23 15:54:17;;;;;;;2.42;2.22;;;6.20;99.90;;;;;;5078961;28;20127;-53
2022/01/23 15:56:45;;;;;;;2.63;2.43;;;6.20;99.90;;;;;;5080153;28;20064;-53
2022/01/23 15:59:11;;;;;;;2.40;2.20;;;6.20;99.90;;;;;;5080878;28;20291;-51
2022/01/23 16:01:37;;;;;;;3.15;2.40;;;6.20;99.90;;;;;;5083013;28;20056;-53
2022/01/23 16:04:03;;;;;;;3.22;2.33;;;6.20;99.90;;;;;;5075210;28;20061;-53
2022/01/23 16:06:28;;;;;;;3.53;2.38;;;6.20;99.90;;;;;;5076099;28;20044;-52
2022/01/23 16:08:54;;;;;;;2.65;2.30;;;6.20;99.90;;;;;;5083745;28;20048;-52
2022/01/23 16:11:19;;;;;;;2.05;1.90;;;6.10;99.90;;;;;;5084438;28;20045;-53
2022/01/23 16:13:45;;;;;;;2.58;2.33;;;6.10;99.90;;;;;;5085073;28;20040;-53